Time;durP1;ratioP1;P1;durP2;ratioP2;P2;SDS_P1;SDS_P2;PMS_P1;PMS_P2;Temp;Humidity;BMP_temperature;BMP_pressure;BME280_temperature;BME280_humidity;BME280_pressure;Samples;Min_cycle;Max_cycle;Signal;HPM_P1;HPM_P2
2021/12/28 00:01:05;;;;;;;9.45;4.40;;;19.10;51.50;;;;;;4494315;31;20290;-70
2021/12/28 00:03:31;;;;;;;7.28;3.63;;;19.10;51.60;;;;;;4495103;31;20148;-70
2021/12/28 00:05:58;;;;;;;10.98;4.07;;;19.10;51.60;;;;;;4494142;32;20372;-71
2021/12/28 00:08:24;;;;;;;9.52;4.22;;;19.00;51.50;;;;;;4494453;32;20120;-71
2021/12/28 00:10:50;;;;;;;9.93;4.38;;;19.10;52.60;;;;;;4494659;32;20575;-70
2021/12/28 00:13:17;;;;;;;11.77;4.72;;;19.00;51.60;;;;;;4493250;32;20262;-70
2021/12/28 00:15:49;;;;;;;6.60;3.50;;;19.00;51.60;;;;;;4493555;32;20176;-70
2021/12/28 00:18:16;;;;;;;9.77;3.90;;;19.00;51.60;;;;;;4493024;32;20129;-70
2021/12/28 00:20:46;;;;;;;8.65;4.30;;;19.00;51.60;;;;;;4493705;32;20136;-70
2021/12/28 00:23:17;;;;;;;9.60;3.72;;;19.00;51.60;;;;;;4494329;32;20136;-70
2021/12/28 00:25:45;;;;;;;10.63;4.57;;;18.90;51.60;;;;;;4493048;32;20218;-70
2021/12/28 00:28:11;;;;;;;8.80;3.72;;;19.00;51.70;;;;;;4495023;32;20144;-71
2021/12/28 00:30:37;;;;;;;10.75;3.78;;;18.90;51.60;;;;;;4479896;32;20213;-71
2021/12/28 00:33:04;;;;;;;8.82;4.13;;;18.90;51.70;;;;;;4494771;32;20133;-70
2021/12/28 00:35:34;;;;;;;8.07;3.67;;;18.90;51.60;;;;;;4492680;32;20144;-70
2021/12/28 00:38:04;;;;;;;7.82;3.60;;;18.90;51.70;;;;;;4494307;32;20194;-70
2021/12/28 00:40:31;;;;;;;6.32;3.70;;;18.80;51.60;;;;;;4494614;32;20151;-70
2021/12/28 00:42:58;;;;;;;7.22;3.35;;;18.90;51.80;;;;;;4493848;31;20129;-70
2021/12/28 00:45:24;;;;;;;6.82;3.10;;;18.80;51.80;;;;;;4494697;32;20269;-70
2021/12/28 00:47:50;;;;;;;9.25;3.83;;;18.80;51.70;;;;;;4492697;32;20164;-70
2021/12/28 00:50:18;;;;;;;7.57;3.60;;;18.80;51.70;;;;;;4494857;32;20128;-70
2021/12/28 00:52:45;;;;;;;8.95;3.38;;;18.80;51.80;;;;;;4494170;32;20270;-69
2021/12/28 00:55:12;;;;;;;7.75;3.20;;;18.80;51.80;;;;;;4494350;32;20171;-70
2021/12/28 00:57:38;;;;;;;6.40;3.63;;;18.80;51.80;;;;;;4496162;31;20474;-70
2021/12/28 01:00:07;;;;;;;6.95;3.50;;;18.70;51.80;;;;;;4496642;31;20198;-70
2021/12/28 01:02:35;;;;;;;8.55;3.65;;;18.70;51.80;;;;;;4496636;31;20137;-70
2021/12/28 01:05:01;;;;;;;4.72;3.13;;;18.70;51.80;;;;;;4496860;31;20132;-70
2021/12/28 01:07:27;;;;;;;5.72;3.03;;;18.70;51.80;;;;;;4497543;31;20586;-71
2021/12/28 01:09:53;;;;;;;7.82;3.22;;;18.70;52.70;;;;;;4496616;31;20133;-70
2021/12/28 01:12:19;;;;;;;4.68;3.45;;;18.70;51.80;;;;;;4497158;31;20143;-71
2021/12/28 01:14:45;;;;;;;6.80;3.00;;;18.70;51.80;;;;;;4496045;31;20181;-72
2021/12/28 01:17:11;;;;;;;4.65;3.10;;;18.70;51.80;;;;;;4496658;31;20129;-72
2021/12/28 01:19:37;;;;;;;4.68;2.88;;;18.60;51.70;;;;;;4483325;31;20183;-72
2021/12/28 01:22:04;;;;;;;6.35;3.03;;;18.60;51.80;;;;;;4495230;31;20137;-72
2021/12/28 01:24:30;;;;;;;4.05;2.85;;;18.60;51.70;;;;;;4496220;31;20139;-72
2021/12/28 01:26:57;;;;;;;6.70;3.30;;;18.60;51.70;;;;;;4495032;31;20230;-72
2021/12/28 01:29:23;;;;;;;4.93;3.15;;;18.60;51.70;;;;;;4497068;31;20641;-72
2021/12/28 01:31:49;;;;;;;5.53;3.15;;;18.60;51.70;;;;;;4496602;31;20186;-72
2021/12/28 01:34:15;;;;;;;6.68;3.08;;;18.60;51.80;;;;;;4496456;31;20108;-72
2021/12/28 01:36:41;;;;;;;4.97;2.85;;;18.60;51.90;;;;;;4495754;31;20125;-72
2021/12/28 01:39:08;;;;;;;6.70;3.13;;;18.50;51.80;;;;;;4495213;31;20470;-71
2021/12/28 01:41:34;;;;;;;4.82;2.95;;;18.50;51.70;;;;;;4497306;31;20139;-72
2021/12/28 01:44:05;;;;;;;4.78;2.63;;;18.50;51.70;;;;;;4495861;31;20137;-73
2021/12/28 01:46:32;;;;;;;4.40;2.78;;;18.50;51.70;;;;;;4496851;31;20263;-72
2021/12/28 01:48:59;;;;;;;6.18;3.33;;;18.50;51.80;;;;;;4496819;31;20144;-72
2021/12/28 01:51:26;;;;;;;4.72;2.42;;;18.50;51.80;;;;;;4482381;31;20195;-72
2021/12/28 01:53:56;;;;;;;6.28;2.70;;;18.50;51.80;;;;;;4496004;31;20125;-72
2021/12/28 01:56:28;;;;;;;6.18;2.97;;;18.50;51.80;;;;;;4495821;31;20133;-72
2021/12/28 01:58:55;;;;;;;6.80;2.90;;;18.50;51.80;;;;;;4496736;31;20137;-72
2021/12/28 02:01:21;;;;;;;4.18;2.42;;;18.50;51.90;;;;;;4494928;31;20602;-72
2021/12/28 02:03:48;;;;;;;4.72;2.42;;;18.50;51.90;;;;;;4496684;31;20482;-72
2021/12/28 02:06:14;;;;;;;3.45;2.60;;;18.40;51.80;;;;;;4496140;31;20101;-72
2021/12/28 02:08:41;;;;;;;4.95;2.70;;;18.40;51.80;;;;;;4494429;31;20575;-72
2021/12/28 02:11:09;;;;;;;4.47;2.75;;;18.40;51.80;;;;;;4496334;31;20131;-72
2021/12/28 02:13:35;;;;;;;6.47;2.78;;;18.40;51.80;;;;;;4494770;31;20760;-72
2021/12/28 02:16:01;;;;;;;4.60;2.67;;;18.40;51.90;;;;;;4496089;31;20135;-72
2021/12/28 02:18:30;;;;;;;5.88;2.78;;;18.40;51.90;;;;;;4495693;31;20121;-72
2021/12/28 02:20:58;;;;;;;4.00;2.75;;;18.40;51.90;;;;;;4496157;31;20199;-72
2021/12/28 02:23:24;;;;;;;4.60;2.40;;;18.30;51.80;;;;;;4496094;31;20143;-72
2021/12/28 02:25:51;;;;;;;3.40;2.30;;;18.40;51.90;;;;;;4494744;31;20136;-72
2021/12/28 02:28:17;;;;;;;4.55;2.30;;;18.30;51.90;;;;;;4496058;31;20127;-72
2021/12/28 02:30:47;;;;;;;2.85;2.25;;;18.30;51.90;;;;;;4495898;31;20171;-72
2021/12/28 02:33:13;;;;;;;4.93;2.67;;;18.30;52.00;;;;;;4495990;31;20134;-72
2021/12/28 02:35:41;;;;;;;3.78;2.10;;;18.30;52.00;;;;;;4495186;31;20259;-72
2021/12/28 02:38:09;;;;;;;4.70;2.30;;;18.30;52.00;;;;;;4494239;31;20128;-72
2021/12/28 02:40:37;;;;;;;4.97;2.22;;;18.30;52.00;;;;;;4505398;31;20129;-72
2021/12/28 02:43:05;;;;;;;3.33;2.30;;;18.30;52.10;;;;;;4494174;31;20148;-71
2021/12/28 02:45:37;;;;;;;3.30;2.30;;;18.30;52.10;;;;;;4493778;31;20156;-72
2021/12/28 02:48:06;;;;;;;2.40;2.00;;;18.30;52.10;;;;;;4493958;31;20132;-72
2021/12/28 02:50:39;;;;;;;5.75;2.58;;;18.30;52.10;;;;;;4494707;31;20140;-72
2021/12/28 02:53:06;;;;;;;3.85;2.20;;;18.20;52.10;;;;;;4494047;31;20151;-71
2021/12/28 02:55:33;;;;;;;3.22;2.17;;;18.20;52.10;;;;;;4493118;31;20672;-68
2021/12/28 02:58:06;;;;;;;4.88;2.20;;;18.20;52.20;;;;;;4494651;31;20244;-66
2021/12/28 03:00:45;;;;;;;5.25;2.33;;;18.20;52.40;;;;;;4493869;31;20132;-68
2021/12/28 03:03:21;;;;;;;3.45;2.10;;;18.20;52.40;;;;;;4493508;31;20255;-70
2021/12/28 03:05:50;;;;;;;4.60;2.58;;;18.20;52.20;;;;;;4492796;31;22018;-70
2021/12/28 03:08:18;;;;;;;3.40;2.05;;;18.20;52.40;;;;;;4493961;31;20139;-69
2021/12/28 03:10:45;;;;;;;4.15;2.47;;;18.20;52.40;;;;;;4480468;31;20384;-70
2021/12/28 03:13:18;;;;;;;3.95;2.40;;;18.20;52.40;;;;;;4479205;31;20198;-69
2021/12/28 03:15:44;;;;;;;3.13;1.95;;;18.20;52.40;;;;;;4494515;31;20195;-70
2021/12/28 03:18:10;;;;;;;3.95;2.30;;;18.10;52.40;;;;;;4492204;31;20279;-70
2021/12/28 03:20:36;;;;;;;4.45;2.47;;;18.10;52.30;;;;;;4493140;31;20129;-71
2021/12/28 03:23:03;;;;;;;3.35;2.58;;;18.10;52.30;;;;;;4492836;31;20127;-69
2021/12/28 03:25:30;;;;;;;3.88;2.60;;;18.10;52.20;;;;;;4493828;31;20147;-72
2021/12/28 03:28:00;;;;;;;4.03;2.40;;;18.10;52.20;;;;;;4494334;31;20148;-71
2021/12/28 03:30:26;;;;;;;2.90;2.45;;;18.10;52.20;;;;;;4479263;31;20257;-71
2021/12/28 03:32:52;;;;;;;3.38;2.22;;;18.10;52.10;;;;;;4494534;31;20638;-71
2021/12/28 03:35:18;;;;;;;3.50;2.60;;;18.10;52.10;;;;;;4492667;31;20187;-72
2021/12/28 03:37:44;;;;;;;3.47;2.50;;;18.10;52.10;;;;;;4503147;31;20254;-72
2021/12/28 03:40:13;;;;;;;2.55;2.28;;;18.10;52.20;;;;;;4509504;31;20271;-72
2021/12/28 03:42:40;;;;;;;3.53;2.63;;;18.00;52.10;;;;;;4509690;31;20124;-71
2021/12/28 03:45:08;;;;;;;3.35;2.55;;;18.00;52.20;;;;;;4509937;31;20178;-71
2021/12/28 03:47:34;;;;;;;2.90;2.20;;;18.10;52.20;;;;;;4510391;31;20215;-71
2021/12/28 03:50:01;;;;;;;3.03;2.25;;;18.00;52.20;;;;;;4497301;31;20143;-71
2021/12/28 03:52:26;;;;;;;3.95;2.40;;;18.00;52.20;;;;;;4509013;31;20217;-71
2021/12/28 03:54:52;;;;;;;3.20;2.55;;;18.00;52.20;;;;;;4511068;31;20246;-71
2021/12/28 03:57:18;;;;;;;2.45;1.98;;;18.00;52.20;;;;;;4510205;31;20116;-71
2021/12/28 03:59:44;;;;;;;2.92;2.00;;;18.00;52.20;;;;;;4496365;31;20135;-71
2021/12/28 04:02:10;;;;;;;3.05;2.40;;;17.90;52.20;;;;;;4510722;31;20120;-72
2021/12/28 04:04:36;;;;;;;2.95;2.33;;;18.00;52.20;;;;;;4496081;31;20292;-71
2021/12/28 04:07:07;;;;;;;3.40;2.35;;;17.90;52.20;;;;;;4496877;31;20136;-72
2021/12/28 04:10:27;;;;;;;2.40;2.00;;;17.90;52.20;;;;;;4508872;31;20258;-72
2021/12/28 04:12:21;;;;;;;3.88;2.15;;;17.90;52.20;;;;;;4504126;31;20117;-71
2021/12/28 04:14:47;;;;;;;3.00;2.00;;;17.90;52.20;;;;;;4496526;31;20128;-71
2021/12/28 04:17:13;;;;;;;2.67;2.10;;;17.90;52.20;;;;;;4508741;31;20270;-71
2021/12/28 04:19:38;;;;;;;2.65;2.13;;;17.90;52.20;;;;;;4510049;31;20128;-71
2021/12/28 04:22:05;;;;;;;3.28;2.30;;;17.90;52.30;;;;;;4509111;31;20174;-71
2021/12/28 04:24:30;;;;;;;2.75;2.03;;;17.90;52.30;;;;;;4510571;31;20189;-72
2021/12/28 04:26:56;;;;;;;3.65;2.30;;;17.90;52.30;;;;;;4509022;31;20120;-71
2021/12/28 04:29:22;;;;;;;2.70;2.03;;;17.80;52.30;;;;;;4510255;31;20225;-72
2021/12/28 04:31:48;;;;;;;2.65;2.00;;;17.80;52.20;;;;;;4511029;31;20263;-72
2021/12/28 04:34:14;;;;;;;2.80;2.00;;;17.80;52.30;;;;;;4513331;31;20128;-72
2021/12/28 04:36:40;;;;;;;2.67;2.00;;;17.80;52.20;;;;;;4513892;31;20597;-72
2021/12/28 04:39:07;;;;;;;3.47;2.30;;;17.80;52.20;;;;;;4512050;31;20191;-71
2021/12/28 04:41:36;;;;;;;2.75;2.10;;;17.80;52.20;;;;;;4513645;31;20711;-71
2021/12/28 04:44:02;;;;;;;2.47;2.15;;;17.80;52.20;;;;;;4486155;31;20136;-71
2021/12/28 04:46:29;;;;;;;2.47;1.95;;;17.80;52.30;;;;;;4512354;31;20128;-71
2021/12/28 04:48:55;;;;;;;2.72;2.33;;;17.80;52.20;;;;;;4513362;31;20235;-71
2021/12/28 04:51:22;;;;;;;2.85;2.10;;;17.80;52.20;;;;;;4511755;31;20462;-71
2021/12/28 04:53:49;;;;;;;2.88;2.13;;;17.80;52.20;;;;;;4513788;31;20509;-71
2021/12/28 04:56:15;;;;;;;3.17;2.60;;;17.70;52.10;;;;;;4511629;31;20286;-71
2021/12/28 04:58:41;;;;;;;2.75;2.22;;;17.70;52.20;;;;;;4499346;31;20120;-71
2021/12/28 05:01:07;;;;;;;2.78;2.15;;;17.70;52.20;;;;;;4512781;31;20120;-71
2021/12/28 05:03:33;;;;;;;2.72;2.20;;;17.70;52.20;;;;;;4513049;31;20129;-72
2021/12/28 05:05:59;;;;;;;2.20;2.00;;;17.70;52.30;;;;;;4511919;31;20139;-71
2021/12/28 05:08:25;;;;;;;2.75;2.22;;;17.70;52.30;;;;;;4512610;31;20120;-71
2021/12/28 05:10:52;;;;;;;3.03;2.20;;;17.70;52.20;;;;;;4513245;31;20174;-71
2021/12/28 05:13:19;;;;;;;2.63;2.28;;;17.70;52.20;;;;;;4511543;31;20585;-72
2021/12/28 05:15:46;;;;;;;2.60;2.22;;;17.60;52.20;;;;;;4512259;31;20360;-71
2021/12/28 05:18:13;;;;;;;3.03;1.98;;;17.60;52.20;;;;;;4512530;31;20128;-71
2021/12/28 05:20:39;;;;;;;2.40;2.10;;;17.60;52.20;;;;;;4512944;31;20263;-71
2021/12/28 05:23:05;;;;;;;3.03;2.25;;;17.60;52.20;;;;;;4512749;31;20116;-72
2021/12/28 05:25:32;;;;;;;2.28;2.08;;;17.60;52.20;;;;;;4485123;31;20136;-71
2021/12/28 05:27:58;;;;;;;3.17;2.05;;;17.60;52.20;;;;;;4512049;31;20140;-71
2021/12/28 05:30:24;;;;;;;2.65;2.17;;;17.60;53.10;;;;;;4511979;31;20143;-71
2021/12/28 05:32:50;;;;;;;3.75;2.50;;;17.60;52.20;;;;;;4512150;31;20216;-71
2021/12/28 05:35:16;;;;;;;2.63;2.10;;;17.60;52.30;;;;;;4512098;31;20542;-71
2021/12/28 05:37:42;;;;;;;2.45;2.13;;;17.60;52.30;;;;;;4511680;31;20129;-71
2021/12/28 05:40:11;;;;;;;2.17;1.98;;;17.60;52.30;;;;;;4512425;31;20146;-71
2021/12/28 05:42:37;;;;;;;3.10;2.45;;;17.50;52.20;;;;;;4510919;31;20124;-71
2021/12/28 05:45:04;;;;;;;2.80;2.55;;;17.50;52.20;;;;;;4512103;31;20135;-71
2021/12/28 05:47:30;;;;;;;2.70;2.13;;;17.50;52.20;;;;;;4497739;31;20146;-71
2021/12/28 05:49:56;;;;;;;2.47;2.10;;;17.50;52.20;;;;;;4511988;31;20135;-71
2021/12/28 05:52:22;;;;;;;2.65;2.22;;;17.50;52.20;;;;;;4510973;31;20131;-71
2021/12/28 05:54:48;;;;;;;2.70;2.30;;;17.50;52.20;;;;;;4511446;31;20132;-71
2021/12/28 05:57:14;;;;;;;3.60;2.30;;;17.50;52.30;;;;;;4497660;31;20258;-71
2021/12/28 05:59:40;;;;;;;3.30;2.60;;;17.50;52.30;;;;;;4510838;31;20136;-71
2021/12/28 06:02:07;;;;;;;3.35;2.35;;;17.50;52.30;;;;;;4511714;31;20159;-71
2021/12/28 06:04:33;;;;;;;3.78;2.40;;;17.50;52.30;;;;;;4511833;31;20132;-71
2021/12/28 06:06:59;;;;;;;3.00;2.47;;;17.50;52.30;;;;;;4512745;31;20131;-71
2021/12/28 06:09:26;;;;;;;3.83;2.85;;;17.50;52.30;;;;;;4510803;31;20134;-71
2021/12/28 06:11:52;;;;;;;3.97;2.67;;;17.40;52.20;;;;;;4511385;31;20136;-71
2021/12/28 06:14:18;;;;;;;2.97;2.35;;;17.50;52.30;;;;;;4510732;31;20139;-72
2021/12/28 06:16:44;;;;;;;2.78;2.42;;;17.40;52.20;;;;;;4510510;31;20155;-71
2021/12/28 06:19:10;;;;;;;3.50;2.53;;;17.50;52.30;;;;;;4511985;31;20249;-71
2021/12/28 06:21:36;;;;;;;2.97;2.38;;;17.40;52.20;;;;;;4497220;31;20143;-71
2021/12/28 06:24:06;;;;;;;3.55;2.60;;;17.40;52.20;;;;;;4511369;31;20198;-71
2021/12/28 06:26:32;;;;;;;3.53;2.40;;;17.40;52.30;;;;;;4510006;31;20132;-71
2021/12/28 06:29:00;;;;;;;3.30;2.72;;;17.40;52.40;;;;;;4512460;31;20128;-72
2021/12/28 06:31:28;;;;;;;2.72;2.53;;;17.40;52.30;;;;;;4510543;31;20178;-71
2021/12/28 06:33:56;;;;;;;2.72;2.35;;;17.40;52.30;;;;;;4510457;31;20194;-71
2021/12/28 06:36:22;;;;;;;2.97;2.30;;;17.40;52.30;;;;;;4511010;31;20199;-72
2021/12/28 06:38:48;;;;;;;3.00;2.60;;;17.40;52.30;;;;;;4510088;31;20136;-72
2021/12/28 06:41:14;;;;;;;3.17;2.55;;;17.40;52.40;;;;;;4497994;31;20143;-71
2021/12/28 06:43:40;;;;;;;3.08;2.63;;;17.40;52.30;;;;;;4483653;31;20120;-71
2021/12/28 06:46:06;;;;;;;3.35;2.78;;;17.40;52.30;;;;;;4497693;31;20544;-71
2021/12/28 06:48:32;;;;;;;2.90;2.50;;;17.30;52.30;;;;;;4510191;31;20113;-71
2021/12/28 06:50:58;;;;;;;2.80;2.50;;;17.30;52.30;;;;;;4484402;31;20132;-71
2021/12/28 06:53:24;;;;;;;2.70;2.30;;;17.30;52.30;;;;;;4511642;31;20116;-71
2021/12/28 06:55:49;;;;;;;2.85;2.40;;;17.30;52.30;;;;;;4496323;31;20585;-71
2021/12/28 06:58:15;;;;;;;2.83;2.50;;;17.30;52.30;;;;;;4512094;31;20195;-72
2021/12/28 07:00:42;;;;;;;3.17;2.55;;;17.30;52.40;;;;;;4483749;31;20129;-71
2021/12/28 07:03:08;;;;;;;3.35;2.40;;;17.30;52.40;;;;;;4510681;31;20291;-72
2021/12/28 07:05:34;;;;;;;2.95;2.40;;;17.30;52.30;;;;;;4511055;31;20272;-71
2021/12/28 07:08:01;;;;;;;3.28;2.40;;;17.30;52.40;;;;;;4510130;31;20144;-72
2021/12/28 07:10:27;;;;;;;2.70;2.45;;;17.30;52.30;;;;;;4510304;31;20154;-71
2021/12/28 07:12:53;;;;;;;3.60;2.42;;;17.30;52.40;;;;;;4509649;31;20128;-72
2021/12/28 07:15:22;;;;;;;2.70;2.40;;;17.30;52.40;;;;;;4510498;31;20584;-69
2021/12/28 07:17:49;;;;;;;3.35;2.63;;;17.30;52.40;;;;;;4508967;31;20147;-69
2021/12/28 07:20:16;;;;;;;2.30;2.10;;;17.20;52.40;;;;;;4511518;31;20179;-70
2021/12/28 07:22:42;;;;;;;2.70;2.45;;;17.20;52.40;;;;;;4509625;31;20270;-71
2021/12/28 07:25:09;;;;;;;2.63;2.30;;;17.20;52.40;;;;;;4511087;31;20108;-72
2021/12/28 07:27:37;;;;;;;3.28;2.80;;;17.20;52.40;;;;;;4511093;31;20259;-71
2021/12/28 07:30:06;;;;;;;3.00;2.30;;;17.20;52.40;;;;;;4510441;31;20139;-71
2021/12/28 07:32:33;;;;;;;2.90;2.53;;;17.20;52.40;;;;;;4511603;31;20189;-72
2021/12/28 07:34:59;;;;;;;2.97;2.40;;;17.20;52.40;;;;;;4496002;31;20482;-71
2021/12/28 07:37:25;;;;;;;3.47;2.35;;;17.20;52.40;;;;;;4511369;31;20151;-71
2021/12/28 07:39:53;;;;;;;3.13;2.47;;;17.20;52.40;;;;;;4496153;31;20116;-71
2021/12/28 07:42:20;;;;;;;3.35;2.40;;;17.20;52.40;;;;;;4510744;31;20205;-71
2021/12/28 07:44:46;;;;;;;4.03;2.72;;;17.20;52.50;;;;;;4509660;31;20236;-71
2021/12/28 07:47:12;;;;;;;3.17;2.80;;;17.20;52.50;;;;;;4510382;31;20182;-71
2021/12/28 07:49:38;;;;;;;2.80;2.50;;;17.20;52.40;;;;;;4497017;31;20250;-71
2021/12/28 07:52:05;;;;;;;4.10;2.63;;;17.20;52.50;;;;;;4508985;31;20128;-71
2021/12/28 07:54:31;;;;;;;3.30;2.70;;;17.20;52.50;;;;;;4510185;31;20653;-71
2021/12/28 07:56:57;;;;;;;3.40;2.63;;;17.10;52.40;;;;;;4508999;31;20249;-71
2021/12/28 07:59:23;;;;;;;3.53;2.53;;;17.20;52.50;;;;;;4509597;31;20219;-72
2021/12/28 08:01:49;;;;;;;3.15;2.78;;;17.10;52.40;;;;;;4496370;31;20139;-71
2021/12/28 08:04:15;;;;;;;5.03;2.53;;;17.10;52.40;;;;;;4510404;31;20238;-71
2021/12/28 08:06:41;;;;;;;2.95;2.60;;;17.10;52.40;;;;;;4509625;31;20182;-72
2021/12/28 08:09:07;;;;;;;3.17;2.67;;;17.10;52.50;;;;;;4495716;31;20132;-72
2021/12/28 08:11:34;;;;;;;3.25;2.60;;;17.10;52.40;;;;;;4510047;31;20221;-71
2021/12/28 08:14:04;;;;;;;3.83;2.70;;;17.10;52.50;;;;;;4509948;31;20132;-71
2021/12/28 08:16:31;;;;;;;3.80;2.80;;;17.10;52.50;;;;;;4496381;31;20136;-71
2021/12/28 08:18:57;;;;;;;5.10;2.67;;;17.10;52.50;;;;;;4508809;31;20136;-68
2021/12/28 08:21:23;;;;;;;4.07;3.22;;;17.10;52.60;;;;;;4509061;31;20135;-69
2021/12/28 08:23:49;;;;;;;4.88;3.60;;;17.10;52.60;;;;;;4496080;31;20120;-68
2021/12/28 08:26:16;;;;;;;6.97;4.60;;;17.10;52.40;;;;;;4509169;31;20174;-67
2021/12/28 08:28:43;;;;;;;5.13;4.50;;;17.00;52.10;;;;;;4509815;31;20213;-71
2021/12/28 08:31:09;;;;;;;5.05;4.03;;;17.00;52.00;;;;;;4508425;31;20156;-71
2021/12/28 08:33:35;;;;;;;5.00;4.20;;;17.00;52.20;;;;;;4509535;31;20136;-71
2021/12/28 08:36:00;;;;;;;5.80;3.83;;;17.00;52.50;;;;;;4495772;31;20140;-71
2021/12/28 08:38:26;;;;;;;6.35;3.70;;;17.00;52.70;;;;;;4510255;31;20136;-72
2021/12/28 08:40:54;;;;;;;4.97;3.30;;;17.00;52.80;;;;;;4510423;31;20147;-69
2021/12/28 08:43:20;;;;;;;4.80;3.22;;;17.10;52.70;;;;;;4510083;31;20132;-69
2021/12/28 08:45:46;;;;;;;4.03;3.20;;;17.10;52.60;;;;;;4496565;31;20655;-70
2021/12/28 08:48:12;;;;;;;5.70;3.10;;;17.20;52.60;;;;;;4508661;31;20152;-73
2021/12/28 08:50:39;;;;;;;4.40;3.17;;;17.30;52.50;;;;;;4509468;31;20267;-72
2021/12/28 08:53:05;;;;;;;4.53;2.90;;;17.30;52.30;;;;;;4508879;31;20610;-71
2021/12/28 08:55:32;;;;;;;4.03;2.72;;;17.50;52.00;;;;;;4510004;31;20182;-70
2021/12/28 08:57:58;;;;;;;4.85;2.50;;;17.60;51.80;;;;;;4509215;31;20124;-68
2021/12/28 09:00:28;;;;;;;3.92;2.53;;;17.70;51.50;;;;;;4495549;31;20516;-70
2021/12/28 09:02:57;;;;;;;6.45;2.40;;;17.80;51.30;;;;;;4510418;31;20135;-70
2021/12/28 09:05:25;;;;;;;3.45;2.38;;;17.90;51.10;;;;;;4508565;31;20128;-71
2021/12/28 09:07:51;;;;;;;3.55;2.40;;;18.10;51.00;;;;;;4510471;31;20150;-71
2021/12/28 09:10:18;;;;;;;4.07;2.30;;;18.20;50.80;;;;;;4509601;31;20139;-70
2021/12/28 09:12:44;;;;;;;4.45;2.22;;;18.30;50.60;;;;;;4509650;31;20213;-72
2021/12/28 09:15:11;;;;;;;2.50;2.00;;;18.40;50.30;;;;;;4504142;31;20160;-70
2021/12/28 09:17:38;;;;;;;4.43;1.88;;;18.50;50.10;;;;;;4479548;31;20731;-73
2021/12/28 09:20:11;;;;;;;3.58;1.75;;;18.60;49.90;;;;;;4510410;31;20144;-72
2021/12/28 09:22:38;;;;;;;2.90;1.90;;;18.70;49.70;;;;;;4499945;31;20256;-72
2021/12/28 09:25:05;;;;;;;2.95;1.98;;;18.90;49.50;;;;;;4495455;31;20229;-72
2021/12/28 09:27:31;;;;;;;4.30;1.80;;;19.00;49.30;;;;;;4496474;31;20259;-71
2021/12/28 09:29:56;;;;;;;3.75;1.92;;;19.10;49.00;;;;;;4496397;31;20127;-72
2021/12/28 09:32:23;;;;;;;3.85;1.80;;;19.20;48.80;;;;;;4495608;31;20129;-72
2021/12/28 09:34:52;;;;;;;3.63;1.88;;;19.30;48.60;;;;;;4494845;31;20225;-72
2021/12/28 09:37:21;;;;;;;2.35;1.70;;;19.50;48.40;;;;;;4498784;31;20242;-72
2021/12/28 09:39:48;;;;;;;2.10;1.60;;;19.50;48.10;;;;;;4495089;31;20120;-72
2021/12/28 09:42:15;;;;;;;3.30;1.38;;;19.70;47.90;;;;;;4497347;31;20597;-71
2021/12/28 09:44:41;;;;;;;3.38;1.58;;;19.80;47.70;;;;;;4496404;31;20198;-71
2021/12/28 09:47:08;;;;;;;2.80;1.50;;;19.90;47.50;;;;;;4482044;31;20255;-71
2021/12/28 09:49:34;;;;;;;4.32;1.95;;;20.00;47.30;;;;;;4496963;31;20375;-70
2021/12/28 09:52:04;;;;;;;2.30;1.45;;;20.10;47.00;;;;;;4481916;31;20117;-71
2021/12/28 09:54:30;;;;;;;2.50;1.60;;;20.20;46.80;;;;;;4497061;31;20148;-71
2021/12/28 09:56:57;;;;;;;3.25;1.58;;;20.30;46.70;;;;;;4496394;31;20247;-72
2021/12/28 09:59:24;;;;;;;2.67;1.30;;;20.40;46.60;;;;;;4496321;31;20247;-71
2021/12/28 10:01:50;;;;;;;2.85;1.40;;;20.50;46.40;;;;;;4482350;31;20143;-72
2021/12/28 10:04:16;;;;;;;3.28;1.35;;;20.60;46.40;;;;;;4494836;31;20190;-71
2021/12/28 10:06:46;;;;;;;3.58;1.70;;;20.60;46.30;;;;;;4495810;31;20121;-69
2021/12/28 10:09:15;;;;;;;3.90;1.30;;;20.70;46.20;;;;;;4494403;31;20128;-68
2021/12/28 10:11:48;;;;;;;4.72;1.60;;;20.70;46.10;;;;;;4495825;31;20120;-72
2021/12/28 10:14:19;;;;;;;3.38;1.60;;;20.80;46.20;;;;;;4494761;31;20136;-69
2021/12/28 10:16:49;;;;;;;3.70;1.50;;;20.80;46.30;;;;;;4495156;31;20505;-70
2021/12/28 10:19:36;;;;;;;4.05;1.63;;;20.90;46.40;;;;;;4495282;31;20132;-70
2021/12/28 10:22:21;;;;;;;4.88;1.67;;;20.90;46.50;;;;;;4495888;31;20186;-72
2021/12/28 10:24:52;;;;;;;3.08;1.65;;;21.00;46.50;;;;;;4496048;31;20174;-73
2021/12/28 10:27:20;;;;;;;3.42;1.48;;;21.00;46.50;;;;;;4494872;31;20597;-73
2021/12/28 10:29:46;;;;;;;3.85;1.38;;;21.10;46.60;;;;;;4492907;31;20148;-72
2021/12/28 10:32:28;;;;;;;4.72;1.27;;;21.10;46.50;;;;;;4495344;31;20652;-71
2021/12/28 10:34:56;;;;;;;3.60;1.20;;;21.10;46.50;;;;;;4494623;31;20128;-69
2021/12/28 10:37:29;;;;;;;5.60;1.52;;;21.20;46.50;;;;;;4495266;31;20112;-71
2021/12/28 10:39:58;;;;;;;2.80;1.17;;;21.20;46.50;;;;;;4493488;31;20254;-71
2021/12/28 10:42:36;;;;;;;3.72;1.60;;;21.20;46.50;;;;;;4493369;31;20276;-71
2021/12/28 10:45:04;;;;;;;8.38;1.60;;;21.20;46.60;;;;;;4493985;31;20464;-71
2021/12/28 10:47:29;;;;;;;5.07;1.63;;;21.20;46.50;;;;;;4479989;31;20193;-72
2021/12/28 10:49:57;;;;;;;3.10;1.15;;;21.30;46.50;;;;;;4495349;31;20160;-72
2021/12/28 10:52:33;;;;;;;4.35;1.23;;;21.30;46.40;;;;;;4492820;31;20588;-70
2021/12/28 10:55:24;;;;;;;3.58;1.40;;;21.30;46.40;;;;;;4493693;31;20151;-70
2021/12/28 10:57:51;;;;;;;6.05;2.17;;;21.30;46.10;;;;;;4494973;31;20136;-74
2021/12/28 11:00:43;;;;;;;5.32;1.63;;;21.40;45.80;;;;;;4492641;31;20576;-71
2021/12/28 11:03:14;;;;;;;3.42;1.33;;;21.40;45.70;;;;;;4501879;31;20404;-71
2021/12/28 11:05:41;;;;;;;5.55;1.60;;;21.40;45.70;;;;;;4508485;31;20143;-70
2021/12/28 11:08:08;;;;;;;4.50;1.45;;;21.40;46.60;;;;;;4480675;31;20217;-69
2021/12/28 11:10:39;;;;;;;3.13;1.33;;;21.50;45.70;;;;;;4490077;31;20124;-70
2021/12/28 11:13:05;;;;;;;3.70;1.45;;;21.50;45.70;;;;;;4484703;31;20183;-69
2021/12/28 11:15:37;;;;;;;5.20;1.30;;;21.50;45.70;;;;;;4484026;31;20155;-75
2021/12/28 11:18:25;;;;;;;4.30;1.30;;;21.60;45.70;;;;;;4481334;31;20501;-71
2021/12/28 11:20:54;;;;;;;4.03;1.20;;;21.60;45.70;;;;;;4495586;31;20246;-70
2021/12/28 11:23:23;;;;;;;2.33;1.15;;;21.60;45.70;;;;;;4495078;31;20254;-72
2021/12/28 11:26:08;;;;;;;4.43;1.40;;;21.70;45.60;;;;;;4496268;31;20156;-72
2021/12/28 11:28:36;;;;;;;4.78;1.15;;;21.70;45.60;;;;;;4494281;31;20202;-70
2021/12/28 11:31:18;;;;;;;2.58;1.08;;;21.80;45.60;;;;;;4479569;31;20124;-70
2021/12/28 11:33:54;;;;;;;2.78;1.45;;;21.90;45.60;;;;;;4495086;31;20128;-72
2021/12/28 11:36:30;;;;;;;5.10;1.30;;;21.90;45.60;;;;;;4493690;31;20136;-67
2021/12/28 11:38:58;;;;;;;4.68;1.48;;;21.90;45.30;;;;;;4481268;31;20132;-67
2021/12/28 11:41:25;;;;;;;2.92;1.40;;;21.90;44.90;;;;;;4491756;31;20155;-71
2021/12/28 11:43:53;;;;;;;3.85;1.60;;;21.80;44.60;;;;;;4491831;31;20609;-71
2021/12/28 11:46:19;;;;;;;3.53;1.50;;;21.70;44.70;;;;;;4492038;31;20139;-71
2021/12/28 11:48:46;;;;;;;8.88;1.30;;;21.60;44.80;;;;;;4493721;31;20156;-71
2021/12/28 11:51:13;;;;;;;5.20;1.55;;;21.60;45.20;;;;;;4493411;31;20615;-71
2021/12/28 11:53:44;;;;;;;4.13;1.52;;;21.50;45.50;;;;;;4493916;31;20244;-69
2021/12/28 11:56:13;;;;;;;4.18;1.35;;;21.40;45.70;;;;;;4493154;31;20321;-69
2021/12/28 11:58:52;;;;;;;5.18;1.60;;;21.30;46.00;;;;;;4501614;31;20229;-69
2021/12/28 12:01:40;;;;;;;3.85;1.45;;;21.20;46.30;;;;;;4474766;31;65207;-72
2021/12/28 12:04:34;;;;;;;2.95;1.20;;;21.10;46.70;;;;;;4492767;31;20187;-72
2021/12/28 12:07:04;;;;;;;3.00;1.10;;;20.90;47.00;;;;;;4492786;31;20121;-72
2021/12/28 12:09:31;;;;;;;4.13;1.52;;;20.80;47.30;;;;;;4492169;31;20144;-72
2021/12/28 12:12:27;;;;;;;2.53;1.20;;;20.70;47.70;;;;;;4493082;31;20291;-71
2021/12/28 12:14:57;;;;;;;2.38;1.02;;;20.60;47.90;;;;;;4493115;31;20148;-72
2021/12/28 12:17:51;;;;;;;3.25;1.20;;;20.50;48.20;;;;;;4491579;31;20135;-71
2021/12/28 12:20:19;;;;;;;2.15;0.95;;;20.30;48.40;;;;;;4491922;31;20136;-72
2021/12/28 12:22:49;;;;;;;4.88;1.42;;;20.20;48.70;;;;;;4494056;31;20662;-73
2021/12/28 12:25:18;;;;;;;3.85;1.25;;;20.20;49.00;;;;;;4492785;31;20201;-73
2021/12/28 12:27:49;;;;;;;2.25;1.25;;;20.10;49.20;;;;;;4492861;31;20569;-74
2021/12/28 12:30:17;;;;;;;3.60;1.33;;;20.00;49.40;;;;;;4493130;31;20129;-73
2021/12/28 12:32:55;;;;;;;2.53;1.00;;;20.00;49.50;;;;;;4493335;31;20141;-72
2021/12/28 12:35:33;;;;;;;2.78;1.20;;;19.90;49.60;;;;;;4492262;31;20274;-73
2021/12/28 12:38:24;;;;;;;2.72;1.20;;;19.80;49.90;;;;;;4506424;31;20155;-71
2021/12/28 12:41:42;;;;;;;3.25;1.10;;;19.70;50.00;;;;;;4485404;31;20143;-72
2021/12/28 12:44:18;;;;;;;2.13;0.93;;;19.60;50.10;;;;;;4457893;32;20558;-71
2021/12/28 12:46:46;;;;;;;3.15;1.33;;;19.50;50.40;;;;;;4454893;32;20122;-72
2021/12/28 12:49:22;;;;;;;3.60;1.20;;;19.50;50.50;;;;;;4478560;31;20132;-72
2021/12/28 12:51:51;;;;;;;2.45;1.20;;;19.50;50.70;;;;;;4491522;31;20562;-72